createdAt,value
2022-11-03T00:01:49.201Z,3
2022-11-03T00:06:51.079Z,2
2022-11-03T00:11:52.722Z,5
2022-11-03T00:16:54.425Z,3
2022-11-03T00:21:56.050Z,2
2022-11-03T00:26:57.701Z,5
2022-11-03T00:31:59.308Z,2
2022-11-03T00:37:00.988Z,3
2022-11-03T00:42:02.708Z,3
2022-11-03T00:47:04.405Z,5
2022-11-03T00:52:06.076Z,3
2022-11-03T00:57:07.688Z,3
2022-11-03T01:02:09.432Z,2
2022-11-03T01:07:11.121Z,5
2022-11-03T01:12:12.787Z,5
2022-11-03T01:17:14.433Z,3
2022-11-03T01:22:16.073Z,5
2022-11-03T01:27:17.802Z,3
2022-11-03T01:32:19.430Z,2
2022-11-03T01:37:21.172Z,2
2022-11-03T01:42:22.792Z,3
2022-11-03T01:47:24.446Z,5
2022-11-03T01:52:26.087Z,2
2022-11-03T01:57:27.736Z,3
2022-11-03T02:02:29.398Z,5
2022-11-03T02:07:31.074Z,6
2022-11-03T02:12:32.685Z,6
2022-11-03T02:17:34.400Z,5
2022-11-03T02:22:36.046Z,5
2022-11-03T02:27:37.648Z,3
2022-11-03T02:32:39.246Z,6
2022-11-03T02:37:40.827Z,6
2022-11-03T02:42:42.472Z,6
2022-11-03T02:47:44.126Z,5
2022-11-03T02:52:45.784Z,6
2022-11-03T02:57:47.546Z,7
2022-11-03T03:02:49.143Z,5
2022-11-03T03:07:50.718Z,7
2022-11-03T03:12:52.349Z,6
2022-11-03T03:17:53.957Z,7
2022-11-03T03:22:55.594Z,7
2022-11-03T03:27:57.199Z,10
2022-11-03T03:32:58.813Z,8
2022-11-03T03:38:00.423Z,6
2022-11-03T03:43:02.057Z,7
2022-11-03T03:48:03.795Z,7
2022-11-03T03:53:05.459Z,8
2022-11-03T03:58:07.512Z,8
2022-11-03T04:03:09.316Z,7
2022-11-03T04:08:10.893Z,8
2022-11-03T04:13:12.631Z,8
2022-11-03T04:18:14.258Z,11
2022-11-03T04:23:15.860Z,9
2022-11-03T04:28:17.458Z,8
2022-11-03T04:33:19.067Z,11
2022-11-03T04:38:20.729Z,8
2022-11-03T04:43:22.387Z,9
2022-11-03T04:48:24.042Z,8
2022-11-03T04:53:25.691Z,10
2022-11-03T04:58:27.369Z,10
2022-11-03T05:03:29.017Z,6
2022-11-03T05:08:30.654Z,7
2022-11-03T05:13:32.361Z,6
2022-11-03T05:18:34.021Z,6
2022-11-03T05:23:35.703Z,6
2022-11-03T05:28:37.676Z,7
2022-11-03T05:33:39.316Z,8
2022-11-03T05:38:41.246Z,7
2022-11-03T05:43:42.898Z,7
2022-11-03T05:48:44.687Z,8
2022-11-03T05:53:46.453Z,5
2022-11-03T05:58:48.438Z,8
2022-11-03T06:03:50.206Z,5
2022-11-03T06:08:51.783Z,7
2022-11-03T06:13:53.417Z,6
2022-11-03T06:18:55.011Z,7
2022-11-03T06:23:56.629Z,5
2022-11-03T06:28:58.259Z,4
2022-11-03T06:33:59.942Z,5
2022-11-03T06:39:01.767Z,5
2022-11-03T06:44:03.387Z,5
2022-11-03T06:49:05.049Z,4
2022-11-03T06:54:06.631Z,5
2022-11-03T06:59:08.485Z,5
2022-11-03T07:04:10.349Z,4
2022-11-03T07:09:11.976Z,4
2022-11-03T07:14:13.620Z,4
2022-11-03T07:19:15.256Z,4
2022-11-03T07:24:16.885Z,4
2022-11-03T07:29:18.549Z,4
2022-11-03T07:34:20.207Z,4
2022-11-03T07:39:21.903Z,3
2022-11-03T07:44:23.557Z,4
2022-11-03T07:49:25.263Z,4
2022-11-03T07:54:26.975Z,5
2022-11-03T07:59:28.656Z,4
2022-11-03T08:04:30.302Z,3
2022-11-03T08:09:31.950Z,3
2022-11-03T08:14:33.631Z,4
2022-11-03T08:19:35.310Z,4
2022-11-03T08:24:36.962Z,3
2022-11-03T08:29:38.605Z,4
2022-11-03T08:34:40.213Z,4
2022-11-03T08:39:41.956Z,4
2022-11-03T08:44:43.623Z,5
2022-11-03T08:49:45.302Z,3
2022-11-03T08:54:47.135Z,5
2022-11-03T08:59:48.826Z,4
2022-11-03T09:04:50.453Z,4
2022-11-03T09:10:20.021Z,3
2022-11-03T09:15:24.084Z,3
2022-11-03T09:20:25.698Z,4
2022-11-03T09:25:27.611Z,4
2022-11-03T09:30:29.330Z,4
2022-11-03T09:35:30.957Z,4
2022-11-03T09:40:32.683Z,4
2022-11-03T09:45:34.348Z,3
2022-11-03T09:50:35.968Z,3
2022-11-03T09:55:37.569Z,3
2022-11-03T10:00:39.208Z,3
2022-11-03T10:05:40.947Z,5
2022-11-03T10:10:42.648Z,4
2022-11-03T10:15:44.295Z,4
2022-11-03T10:20:45.982Z,4
2022-11-03T10:25:47.641Z,5
2022-11-03T10:31:10.116Z,5
2022-11-03T10:36:13.461Z,4
2022-11-03T10:41:15.162Z,5
2022-11-03T10:46:36.613Z,5
2022-11-03T10:51:50.720Z,5
2022-11-03T10:56:52.428Z,4
2022-11-03T11:01:54.182Z,5
2022-11-03T11:06:55.898Z,4
2022-11-03T11:11:58.455Z,7
2022-11-03T11:17:00.395Z,4
2022-11-03T11:22:02.110Z,4
2022-11-03T11:27:03.741Z,5
2022-11-03T11:32:05.358Z,5
2022-11-03T11:37:07.177Z,7
2022-11-03T11:42:08.903Z,8
2022-11-03T11:47:10.761Z,7
2022-11-03T11:52:15.517Z,7
2022-11-03T11:57:20.720Z,7
2022-11-03T12:02:22.331Z,9
2022-11-03T12:07:23.946Z,11
2022-11-03T12:12:25.567Z,7
2022-11-03T12:17:27.227Z,7
2022-11-03T12:22:28.882Z,9
2022-11-03T12:27:30.495Z,7
2022-11-03T12:32:33.530Z,9
2022-11-03T12:37:36.281Z,8
2022-11-03T12:42:37.957Z,6
2022-11-03T12:47:39.594Z,7
2022-11-03T12:52:41.242Z,8
2022-11-03T12:57:43.013Z,7
2022-11-03T13:02:44.812Z,7
2022-11-03T13:07:46.602Z,12
2022-11-03T13:12:48.256Z,12
2022-11-03T13:18:12.227Z,13
2022-11-03T13:23:17.490Z,12
2022-11-03T13:28:22.356Z,13
2022-11-03T13:33:23.938Z,12
2022-11-03T13:38:25.731Z,12
2022-11-03T13:43:27.391Z,14
2022-11-03T13:59:32.434Z,10
2022-11-03T14:04:41.780Z,10
2022-11-03T14:09:44.180Z,10
2022-11-03T14:14:45.843Z,11
2022-11-03T14:19:51.999Z,11
2022-11-03T14:24:54.420Z,12
2022-11-03T14:29:56.013Z,8
2022-11-03T14:34:57.697Z,10
2022-11-03T14:39:59.521Z,11
2022-11-03T14:45:01.269Z,13
2022-11-03T14:50:02.876Z,16
2022-11-03T14:55:04.587Z,13
2022-11-03T15:00:06.227Z,18
2022-11-03T15:05:07.864Z,11
2022-11-03T15:10:09.553Z,11
2022-11-03T15:15:11.280Z,11
2022-11-03T15:20:12.937Z,11
2022-11-03T15:25:17.167Z,18
2022-11-03T15:30:22.054Z,17
2022-11-03T15:35:23.740Z,13
2022-11-03T15:40:25.779Z,13
2022-11-03T15:45:27.520Z,10
2022-11-03T15:50:29.133Z,10
2022-11-03T15:55:30.770Z,10
2022-11-03T16:00:32.663Z,12
2022-11-03T16:05:34.360Z,10
2022-11-03T16:10:36.011Z,12
2022-11-03T16:15:37.692Z,11
2022-11-03T16:20:39.347Z,10
2022-11-03T16:25:41.005Z,10
2022-11-03T16:30:42.725Z,10
2022-11-03T16:35:44.389Z,9
2022-11-03T16:40:46.085Z,10
2022-11-03T16:45:47.724Z,8
2022-11-03T16:50:51.570Z,10
2022-11-03T16:55:56.104Z,10
2022-11-03T17:00:57.827Z,10
2022-11-03T17:05:59.647Z,9
2022-11-03T17:11:01.859Z,9
2022-11-03T17:16:03.511Z,11
2022-11-03T17:21:05.191Z,9
2022-11-03T17:26:06.891Z,9
2022-11-03T17:31:08.517Z,12
2022-11-03T17:36:10.172Z,11
2022-11-03T17:41:15.014Z,11
2022-11-03T17:46:19.736Z,15
2022-11-03T17:51:21.370Z,10
2022-11-03T17:56:30.069Z,11
2022-11-03T18:01:32.908Z,8
2022-11-03T18:06:34.654Z,10
2022-11-03T18:11:36.316Z,8
2022-11-03T18:16:38.202Z,14
2022-11-03T18:21:40.091Z,20
2022-11-03T18:26:41.849Z,11
2022-11-03T18:31:43.555Z,10
2022-11-03T18:36:45.252Z,10
2022-11-03T18:41:46.856Z,10
2022-11-03T18:46:48.519Z,11
2022-11-03T18:51:50.184Z,9
2022-11-03T18:56:51.815Z,11
2022-11-03T19:01:53.605Z,11
2022-11-03T19:06:55.336Z,16
2022-11-03T19:11:56.942Z,9
2022-11-03T19:17:22.307Z,9
2022-11-03T19:22:25.043Z,11
2022-11-03T19:27:26.772Z,9
2022-11-03T19:32:28.402Z,9
2022-11-03T19:37:35.166Z,13
2022-11-03T19:42:37.666Z,9
2022-11-03T19:47:39.724Z,9
2022-11-03T19:52:43.722Z,9
2022-11-03T19:57:45.472Z,10
2022-11-03T20:02:47.202Z,9
2022-11-03T20:07:48.961Z,10
2022-11-03T20:12:50.696Z,10
2022-11-03T20:17:52.337Z,10
2022-11-03T20:22:54.098Z,9
2022-11-03T20:27:55.995Z,10
2022-11-03T20:32:57.892Z,12
2022-11-03T20:37:59.543Z,12
2022-11-03T20:43:01.367Z,10
2022-11-03T20:48:03.065Z,11
2022-11-03T20:53:04.679Z,9
2022-11-03T20:58:06.774Z,10
2022-11-03T21:03:08.904Z,11
2022-11-03T21:08:10.774Z,9
2022-11-03T21:13:12.421Z,10
2022-11-03T21:18:14.012Z,13
2022-11-03T21:23:15.731Z,9
2022-11-03T21:28:17.374Z,9
2022-11-03T21:33:20.705Z,12
2022-11-03T21:38:22.346Z,12
2022-11-03T21:43:24.011Z,6
2022-11-03T21:48:25.635Z,10
2022-11-03T21:53:27.293Z,9
2022-11-03T21:58:28.941Z,10
2022-11-03T22:03:30.582Z,9
2022-11-03T22:08:32.242Z,9
2022-11-03T22:13:33.978Z,9
2022-11-03T22:18:35.714Z,10
2022-11-03T22:23:37.317Z,11
2022-11-03T22:28:39.079Z,12
2022-11-03T22:33:40.706Z,10
2022-11-03T22:38:42.359Z,12
2022-11-03T22:43:44.038Z,12
2022-11-03T22:48:45.628Z,13
2022-11-03T22:53:47.265Z,12
2022-11-03T22:58:48.959Z,14
2022-11-03T23:03:50.671Z,12
2022-11-03T23:08:52.291Z,11
2022-11-03T23:13:54.004Z,12
2022-11-03T23:18:55.679Z,12
2022-11-03T23:23:57.310Z,16
2022-11-03T23:28:58.928Z,13
2022-11-03T23:34:00.610Z,10
2022-11-03T23:39:02.271Z,12
2022-11-03T23:44:03.940Z,10
2022-11-03T23:49:05.559Z,10
2022-11-03T23:54:07.227Z,10
2022-11-03T23:59:08.861Z,10
